<?xml version="1.0" encoding="utf-8"?>
<gpx xmlns:xsi="http://www.w3.org/2001/XMLSchema-instance" xmlns:xsd="http://www.w3.org/2001/XMLSchema" version="1.1" creator="Shapelink.com" xmlns="http://www.topografix.com/GPX/1/1" xmlns:gpxtpx="http://www.garmin.com/xmlschemas/TrackPointExtension/v1">
  <metadata>
    <name>Ejecutar 7.01 km, 2019-12-10</name>
    <desc></desc>
    <author><name>Per Rooth</name></author> 
    <time>2019-12-10T18:07:24Z</time>
  </metadata>
  <trk>
    <name>Ejecutar 7.01 km, 2019-12-10</name>
    <trkseg>
      <trkpt lat="56.891020309373" lon="14.824144604819">
        <ele>174.2</ele>
        <time>2019-12-10T18:07:24Z</time>
      </trkpt>
      <trkpt lat="56.890963647729" lon="14.824293886458">
        <ele>172.6</ele>
        <time>2019-12-10T18:07:28Z</time>
      </trkpt>
      <trkpt lat="56.890819730506" lon="14.824522712328">
        <ele>172.4</ele>
        <time>2019-12-10T18:07:38Z</time>
      </trkpt>
      <trkpt lat="56.890759297007" lon="14.824708036137">
        <ele>171.4</ele>
        <time>2019-12-10T18:07:43Z</time>
      </trkpt>
      <trkpt lat="56.890657959836" lon="14.825018836989">
        <ele>170.2</ele>
        <time>2019-12-10T18:07:50Z</time>
      </trkpt>
      <trkpt lat="56.890575565759" lon="14.825201143314">
        <ele>169</ele>
        <time>2019-12-10T18:07:55Z</time>
      </trkpt>
      <trkpt lat="56.890442042092" lon="14.825478248928">
        <ele>168</ele>
        <time>2019-12-10T18:08:02Z</time>
      </trkpt>
      <trkpt lat="56.890356630531" lon="14.825769939048">
        <ele>168.8</ele>
        <time>2019-12-10T18:08:08Z</time>
      </trkpt>
      <trkpt lat="56.890330562822" lon="14.825876975911">
        <ele>168.4</ele>
        <time>2019-12-10T18:08:10Z</time>
      </trkpt>
      <trkpt lat="56.890309021339" lon="14.825974792684">
        <ele>167.8</ele>
        <time>2019-12-10T18:08:12Z</time>
      </trkpt>
      <trkpt lat="56.890261328328" lon="14.826324569371">
        <ele>167.8</ele>
        <time>2019-12-10T18:08:19Z</time>
      </trkpt>
      <trkpt lat="56.890275074644" lon="14.826517269252">
        <ele>167</ele>
        <time>2019-12-10T18:08:23Z</time>
      </trkpt>
      <trkpt lat="56.890290748797" lon="14.826875008744">
        <ele>166.8</ele>
        <time>2019-12-10T18:08:31Z</time>
      </trkpt>
      <trkpt lat="56.890270632237" lon="14.827136440205">
        <ele>166.6</ele>
        <time>2019-12-10T18:08:36Z</time>
      </trkpt>
      <trkpt lat="56.890258729939" lon="14.827479008458">
        <ele>166.6</ele>
        <time>2019-12-10T18:08:43Z</time>
      </trkpt>
      <trkpt lat="56.890242469053" lon="14.827763154868">
        <ele>166.2</ele>
        <time>2019-12-10T18:08:50Z</time>
      </trkpt>
      <trkpt lat="56.890174491844" lon="14.828018551361">
        <ele>166</ele>
        <time>2019-12-10T18:08:55Z</time>
      </trkpt>
      <trkpt lat="56.88999713084" lon="14.828189709759">
        <ele>166.8</ele>
        <time>2019-12-10T18:09:02Z</time>
      </trkpt>
      <trkpt lat="56.889933596038" lon="14.828287861808">
        <ele>166.6</ele>
        <time>2019-12-10T18:09:05Z</time>
      </trkpt>
      <trkpt lat="56.88980434714" lon="14.828591621864">
        <ele>166.6</ele>
        <time>2019-12-10T18:09:12Z</time>
      </trkpt>
      <trkpt lat="56.889743578365" lon="14.828918432145">
        <ele>166.4</ele>
        <time>2019-12-10T18:09:19Z</time>
      </trkpt>
      <trkpt lat="56.889758162871" lon="14.829069893078">
        <ele>166.4</ele>
        <time>2019-12-10T18:09:22Z</time>
      </trkpt>
      <trkpt lat="56.889747685496" lon="14.829221521649">
        <ele>166.2</ele>
        <time>2019-12-10T18:09:25Z</time>
      </trkpt>
      <trkpt lat="56.889708374385" lon="14.829279859673">
        <ele>165.8</ele>
        <time>2019-12-10T18:09:27Z</time>
      </trkpt>
      <trkpt lat="56.88950762788" lon="14.829361834655">
        <ele>166.2</ele>
        <time>2019-12-10T18:09:36Z</time>
      </trkpt>
      <trkpt lat="56.889347701228" lon="14.829400391395">
        <ele>166.2</ele>
        <time>2019-12-10T18:09:42Z</time>
      </trkpt>
      <trkpt lat="56.889156593908" lon="14.829460992532">
        <ele>165.6</ele>
        <time>2019-12-10T18:09:49Z</time>
      </trkpt>
      <trkpt lat="56.888977305067" lon="14.829545733541">
        <ele>165</ele>
        <time>2019-12-10T18:09:55Z</time>
      </trkpt>
      <trkpt lat="56.888782006797" lon="14.829626115962">
        <ele>165.2</ele>
        <time>2019-12-10T18:10:02Z</time>
      </trkpt>
      <trkpt lat="56.888725931886" lon="14.829635755147">
        <ele>165</ele>
        <time>2019-12-10T18:10:04Z</time>
      </trkpt>
      <trkpt lat="56.888528035227" lon="14.829677748466">
        <ele>164.6</ele>
        <time>2019-12-10T18:10:11Z</time>
      </trkpt>
      <trkpt lat="56.888369198222" lon="14.829895845504">
        <ele>164.6</ele>
        <time>2019-12-10T18:10:18Z</time>
      </trkpt>
      <trkpt lat="56.888304992868" lon="14.830201868673">
        <ele>165</ele>
        <time>2019-12-10T18:10:25Z</time>
      </trkpt>
      <trkpt lat="56.888290995095" lon="14.830331871942">
        <ele>165</ele>
        <time>2019-12-10T18:10:28Z</time>
      </trkpt>
      <trkpt lat="56.888296359511" lon="14.830392221622">
        <ele>165</ele>
        <time>2019-12-10T18:10:30Z</time>
      </trkpt>
      <trkpt lat="56.888327791636" lon="14.830424911032">
        <ele>165.2</ele>
        <time>2019-12-10T18:10:32Z</time>
      </trkpt>
      <trkpt lat="56.88838696785" lon="14.830433125294">
        <ele>165.6</ele>
        <time>2019-12-10T18:10:35Z</time>
      </trkpt>
      <trkpt lat="56.888571537288" lon="14.830477214088">
        <ele>166</ele>
        <time>2019-12-10T18:10:43Z</time>
      </trkpt>
      <trkpt lat="56.888664911654" lon="14.830553237921">
        <ele>166.6</ele>
        <time>2019-12-10T18:10:47Z</time>
      </trkpt>
      <trkpt lat="56.888810169981" lon="14.830778878669">
        <ele>167.4</ele>
        <time>2019-12-10T18:10:55Z</time>
      </trkpt>
      <trkpt lat="56.888863395046" lon="14.830850376276">
        <ele>168</ele>
        <time>2019-12-10T18:10:58Z</time>
      </trkpt>
      <trkpt lat="56.88896364257" lon="14.830994964051">
        <ele>169</ele>
        <time>2019-12-10T18:11:04Z</time>
      </trkpt>
      <trkpt lat="56.888989710279" lon="14.831028910746">
        <ele>170.2</ele>
        <time>2019-12-10T18:11:06Z</time>
      </trkpt>
      <trkpt lat="56.889068164863" lon="14.831122368931">
        <ele>171.2</ele>
        <time>2019-12-10T18:11:11Z</time>
      </trkpt>
      <trkpt lat="56.889125748516" lon="14.831173666159">
        <ele>172.4</ele>
        <time>2019-12-10T18:11:14Z</time>
      </trkpt>
      <trkpt lat="56.889269414282" lon="14.831297969736">
        <ele>173.6</ele>
        <time>2019-12-10T18:11:22Z</time>
      </trkpt>
      <trkpt lat="56.889377373154" lon="14.831368796791">
        <ele>175</ele>
        <time>2019-12-10T18:11:28Z</time>
      </trkpt>
      <trkpt lat="56.889450798598" lon="14.831420261657">
        <ele>176.2</ele>
        <time>2019-12-10T18:11:32Z</time>
      </trkpt>
      <trkpt lat="56.889511986468" lon="14.831483125907">
        <ele>177.2</ele>
        <time>2019-12-10T18:11:36Z</time>
      </trkpt>
      <trkpt lat="56.889554650339" lon="14.831565771441">
        <ele>178.2</ele>
        <time>2019-12-10T18:11:39Z</time>
      </trkpt>
      <trkpt lat="56.889599242047" lon="14.831646572957">
        <ele>178.6</ele>
        <time>2019-12-10T18:11:42Z</time>
      </trkpt>
      <trkpt lat="56.889740812338" lon="14.831888306953">
        <ele>177.6</ele>
        <time>2019-12-10T18:11:49Z</time>
      </trkpt>
      <trkpt lat="56.889868384856" lon="14.832151414794">
        <ele>177.6</ele>
        <time>2019-12-10T18:11:56Z</time>
      </trkpt>
      <trkpt lat="56.890020767798" lon="14.832413349169">
        <ele>177.4</ele>
        <time>2019-12-10T18:12:03Z</time>
      </trkpt>
      <trkpt lat="56.890064940411" lon="14.83254234661">
        <ele>177</ele>
        <time>2019-12-10T18:12:06Z</time>
      </trkpt>
      <trkpt lat="56.89019745825" lon="14.832776872172">
        <ele>177.4</ele>
        <time>2019-12-10T18:12:13Z</time>
      </trkpt>
      <trkpt lat="56.890320923637" lon="14.833025563145">
        <ele>177.6</ele>
        <time>2019-12-10T18:12:20Z</time>
      </trkpt>
      <trkpt lat="56.890353110133" lon="14.833090941965">
        <ele>178.2</ele>
        <time>2019-12-10T18:12:22Z</time>
      </trkpt>
      <trkpt lat="56.890373394331" lon="14.833118853692">
        <ele>178.4</ele>
        <time>2019-12-10T18:12:23Z</time>
      </trkpt>
      <trkpt lat="56.890474982959" lon="14.833244246916">
        <ele>179.6</ele>
        <time>2019-12-10T18:12:28Z</time>
      </trkpt>
      <trkpt lat="56.890537009019" lon="14.833304931872">
        <ele>181</ele>
        <time>2019-12-10T18:12:31Z</time>
      </trkpt>
      <trkpt lat="56.89060900954" lon="14.833356061462">
        <ele>182.2</ele>
        <time>2019-12-10T18:12:34Z</time>
      </trkpt>
      <trkpt lat="56.890724009208" lon="14.833458069185">
        <ele>183.2</ele>
        <time>2019-12-10T18:12:40Z</time>
      </trkpt>
      <trkpt lat="56.89089986147" lon="14.833610452127">
        <ele>184.2</ele>
        <time>2019-12-10T18:12:48Z</time>
      </trkpt>
      <trkpt lat="56.89091913984" lon="14.833623192615">
        <ele>184.2</ele>
        <time>2019-12-10T18:12:49Z</time>
      </trkpt>
      <trkpt lat="56.891018130079" lon="14.833700557552">
        <ele>185.4</ele>
        <time>2019-12-10T18:12:54Z</time>
      </trkpt>
      <trkpt lat="56.891101278527" lon="14.833733246962">
        <ele>186.6</ele>
        <time>2019-12-10T18:12:58Z</time>
      </trkpt>
      <trkpt lat="56.891276879332" lon="14.833732157315">
        <ele>187</ele>
        <time>2019-12-10T18:13:05Z</time>
      </trkpt>
      <trkpt lat="56.891459520933" lon="14.833677926422">
        <ele>185.4</ele>
        <time>2019-12-10T18:13:12Z</time>
      </trkpt>
      <trkpt lat="56.891633529177" lon="14.833575751061">
        <ele>184.8</ele>
        <time>2019-12-10T18:13:19Z</time>
      </trkpt>
      <trkpt lat="56.8917103912" lon="14.833534176837">
        <ele>184.2</ele>
        <time>2019-12-10T18:13:22Z</time>
      </trkpt>
      <trkpt lat="56.89190568947" lon="14.833424457766">
        <ele>183.6</ele>
        <time>2019-12-10T18:13:29Z</time>
      </trkpt>
      <trkpt lat="56.892088582528" lon="14.833468798017">
        <ele>184.8</ele>
        <time>2019-12-10T18:13:37Z</time>
      </trkpt>
      <trkpt lat="56.892267703731" lon="14.833398641514">
        <ele>184</ele>
        <time>2019-12-10T18:13:44Z</time>
      </trkpt>
      <trkpt lat="56.892318330407" lon="14.833383386456">
        <ele>183</ele>
        <time>2019-12-10T18:13:46Z</time>
      </trkpt>
      <trkpt lat="56.892406675633" lon="14.833369304864">
        <ele>181.8</ele>
        <time>2019-12-10T18:13:49Z</time>
      </trkpt>
      <trkpt lat="56.892578839859" lon="14.833406017586">
        <ele>180.4</ele>
        <time>2019-12-10T18:13:55Z</time>
      </trkpt>
      <trkpt lat="56.8926826916" lon="14.833469887664">
        <ele>179.8</ele>
        <time>2019-12-10T18:13:59Z</time>
      </trkpt>
      <trkpt lat="56.892834487809" lon="14.833613888706">
        <ele>179.2</ele>
        <time>2019-12-10T18:14:05Z</time>
      </trkpt>
      <trkpt lat="56.892968765847" lon="14.833869955751">
        <ele>179.4</ele>
        <time>2019-12-10T18:14:12Z</time>
      </trkpt>
      <trkpt lat="56.893084855162" lon="14.834128872642">
        <ele>178.8</ele>
        <time>2019-12-10T18:14:19Z</time>
      </trkpt>
      <trkpt lat="56.893195412423" lon="14.83440312841">
        <ele>178</ele>
        <time>2019-12-10T18:14:26Z</time>
      </trkpt>
      <trkpt lat="56.893225503444" lon="14.834738991143">
        <ele>177.4</ele>
        <time>2019-12-10T18:14:33Z</time>
      </trkpt>
      <trkpt lat="56.893274537559" lon="14.834939821467">
        <ele>178</ele>
        <time>2019-12-10T18:14:38Z</time>
      </trkpt>
      <trkpt lat="56.893429183614" lon="14.835144591284">
        <ele>178.2</ele>
        <time>2019-12-10T18:14:46Z</time>
      </trkpt>
      <trkpt lat="56.893587769162" lon="14.835321197917">
        <ele>177.6</ele>
        <time>2019-12-10T18:14:54Z</time>
      </trkpt>
      <trkpt lat="56.893758843741" lon="14.83550283369">
        <ele>177.6</ele>
        <time>2019-12-10T18:15:02Z</time>
      </trkpt>
      <trkpt lat="56.893926146465" lon="14.835681451979">
        <ele>177.2</ele>
        <time>2019-12-10T18:15:10Z</time>
      </trkpt>
      <trkpt lat="56.894048019291" lon="14.835798379484">
        <ele>177.4</ele>
        <time>2019-12-10T18:15:16Z</time>
      </trkpt>
      <trkpt lat="56.894252453832" lon="14.836086297749">
        <ele>177.6</ele>
        <time>2019-12-10T18:17:49Z</time>
      </trkpt>
      <trkpt lat="56.894188332297" lon="14.836140193366">
        <ele>178.2</ele>
        <time>2019-12-10T18:17:53Z</time>
      </trkpt>
      <trkpt lat="56.894146590435" lon="14.836171122577">
        <ele>177.6</ele>
        <time>2019-12-10T18:17:55Z</time>
      </trkpt>
      <trkpt lat="56.893973336562" lon="14.836324678985">
        <ele>178</ele>
        <time>2019-12-10T18:18:03Z</time>
      </trkpt>
      <trkpt lat="56.89381676267" lon="14.836555181235">
        <ele>177.8</ele>
        <time>2019-12-10T18:18:11Z</time>
      </trkpt>
      <trkpt lat="56.893672091076" lon="14.836756346835">
        <ele>178.2</ele>
        <time>2019-12-10T18:18:18Z</time>
      </trkpt>
      <trkpt lat="56.893504285438" lon="14.836906550483">
        <ele>178.2</ele>
        <time>2019-12-10T18:18:25Z</time>
      </trkpt>
      <trkpt lat="56.893448629622" lon="14.836970085285">
        <ele>178.4</ele>
        <time>2019-12-10T18:18:29Z</time>
      </trkpt>
      <trkpt lat="56.893471009295" lon="14.836949214354">
        <ele>178.4</ele>
        <time>2019-12-10T18:18:31Z</time>
      </trkpt>
      <trkpt lat="56.893511745329" lon="14.836908813596">
        <ele>178.6</ele>
        <time>2019-12-10T18:18:33Z</time>
      </trkpt>
      <trkpt lat="56.893662116615" lon="14.836688621083">
        <ele>178.4</ele>
        <time>2019-12-10T18:18:41Z</time>
      </trkpt>
      <trkpt lat="56.893802178164" lon="14.836457280643">
        <ele>178.4</ele>
        <time>2019-12-10T18:18:49Z</time>
      </trkpt>
      <trkpt lat="56.893962272454" lon="14.836238513053">
        <ele>178.2</ele>
        <time>2019-12-10T18:18:58Z</time>
      </trkpt>
      <trkpt lat="56.89407827795" lon="14.83612393248">
        <ele>178.2</ele>
        <time>2019-12-10T18:19:05Z</time>
      </trkpt>
      <trkpt lat="56.894132508843" lon="14.836066767922">
        <ele>178.4</ele>
        <time>2019-12-10T18:19:11Z</time>
      </trkpt>
      <trkpt lat="56.89414533315" lon="14.836046986638">
        <ele>178.2</ele>
        <time>2019-12-10T18:19:13Z</time>
      </trkpt>
      <trkpt lat="56.894198474396" lon="14.836086968301">
        <ele>178.2</ele>
        <time>2019-12-10T18:20:29Z</time>
      </trkpt>
      <trkpt lat="56.894155056154" lon="14.835950846245">
        <ele>178.4</ele>
        <time>2019-12-10T18:20:39Z</time>
      </trkpt>
      <trkpt lat="56.894127228246" lon="14.835915474627">
        <ele>179.2</ele>
        <time>2019-12-10T18:20:42Z</time>
      </trkpt>
      <trkpt lat="56.894122199106" lon="14.835909691116">
        <ele>179.2</ele>
        <time>2019-12-10T18:20:43Z</time>
      </trkpt>
      <trkpt lat="56.894092443361" lon="14.835892927316">
        <ele>179.6</ele>
        <time>2019-12-10T18:20:47Z</time>
      </trkpt>
      <trkpt lat="56.894067716756" lon="14.83588001919">
        <ele>179.8</ele>
        <time>2019-12-10T18:20:50Z</time>
      </trkpt>
      <trkpt lat="56.894042068142" lon="14.835877672258">
        <ele>179.4</ele>
        <time>2019-12-10T18:20:53Z</time>
      </trkpt>
      <trkpt lat="56.894021616306" lon="14.835855292585">
        <ele>179</ele>
        <time>2019-12-10T18:20:55Z</time>
      </trkpt>
      <trkpt lat="56.893984987403" lon="14.835802318977">
        <ele>178.4</ele>
        <time>2019-12-10T18:21:00Z</time>
      </trkpt>
      <trkpt lat="56.893943161722" lon="14.835749764464">
        <ele>178.6</ele>
        <time>2019-12-10T18:21:07Z</time>
      </trkpt>
      <trkpt lat="56.893933522537" lon="14.835733838854">
        <ele>178.6</ele>
        <time>2019-12-10T18:21:09Z</time>
      </trkpt>
      <trkpt lat="56.893888260277" lon="14.835664352903">
        <ele>178.8</ele>
        <time>2019-12-10T18:21:15Z</time>
      </trkpt>
      <trkpt lat="56.893875687427" lon="14.8356444878">
        <ele>178.8</ele>
        <time>2019-12-10T18:21:17Z</time>
      </trkpt>
      <trkpt lat="56.893837968877" lon="14.835614396779">
        <ele>178.6</ele>
        <time>2019-12-10T18:21:21Z</time>
      </trkpt>
      <trkpt lat="56.893804776553" lon="14.83557827079">
        <ele>178.6</ele>
        <time>2019-12-10T18:21:26Z</time>
      </trkpt>
      <trkpt lat="56.893783067432" lon="14.835572152003">
        <ele>178.6</ele>
        <time>2019-12-10T18:21:28Z</time>
      </trkpt>
      <trkpt lat="56.893755155705" lon="14.83557575622">
        <ele>178.6</ele>
        <time>2019-12-10T18:21:31Z</time>
      </trkpt>
      <trkpt lat="56.893734368593" lon="14.835562009904">
        <ele>178.6</ele>
        <time>2019-12-10T18:21:33Z</time>
      </trkpt>
      <trkpt lat="56.893628421377" lon="14.835462852027">
        <ele>179</ele>
        <time>2019-12-10T18:21:50Z</time>
      </trkpt>
      <trkpt lat="56.893608137179" lon="14.835436365223">
        <ele>179.8</ele>
        <time>2019-12-10T18:21:52Z</time>
      </trkpt>
      <trkpt lat="56.893585589868" lon="14.835391605877">
        <ele>179.8</ele>
        <time>2019-12-10T18:21:55Z</time>
      </trkpt>
      <trkpt lat="56.893436392048" lon="14.835185746413">
        <ele>179.4</ele>
        <time>2019-12-10T18:22:06Z</time>
      </trkpt>
      <trkpt lat="56.893279063785" lon="14.835009055961">
        <ele>179.6</ele>
        <time>2019-12-10T18:22:14Z</time>
      </trkpt>
      <trkpt lat="56.89326774822" lon="14.834702781335">
        <ele>179.2</ele>
        <time>2019-12-10T18:22:22Z</time>
      </trkpt>
      <trkpt lat="56.893278225595" lon="14.834638743619">
        <ele>178.8</ele>
        <time>2019-12-10T18:22:26Z</time>
      </trkpt>
      <trkpt lat="56.89327110098" lon="14.834595744472">
        <ele>178.6</ele>
        <time>2019-12-10T18:22:30Z</time>
      </trkpt>
      <trkpt lat="56.893315105955" lon="14.834723987542">
        <ele>178.8</ele>
        <time>2019-12-10T18:23:24Z</time>
      </trkpt>
      <trkpt lat="56.893357015455" lon="14.835009307418">
        <ele>180</ele>
        <time>2019-12-10T18:23:37Z</time>
      </trkpt>
      <trkpt lat="56.893366989916" lon="14.835023137553">
        <ele>180.6</ele>
        <time>2019-12-10T18:23:38Z</time>
      </trkpt>
      <trkpt lat="56.893493388968" lon="14.835131347882">
        <ele>180.4</ele>
        <time>2019-12-10T18:23:51Z</time>
      </trkpt>
      <trkpt lat="56.893525743102" lon="14.835152386451">
        <ele>181.6</ele>
        <time>2019-12-10T18:23:53Z</time>
      </trkpt>
      <trkpt lat="56.893577459425" lon="14.835220950393">
        <ele>180.6</ele>
        <time>2019-12-10T18:23:58Z</time>
      </trkpt>
      <trkpt lat="56.89362062621" lon="14.835286832127">
        <ele>179.8</ele>
        <time>2019-12-10T18:24:04Z</time>
      </trkpt>
      <trkpt lat="56.893698410242" lon="14.835371489317">
        <ele>179.6</ele>
        <time>2019-12-10T18:24:12Z</time>
      </trkpt>
      <trkpt lat="56.893710983092" lon="14.835383475434">
        <ele>179.4</ele>
        <time>2019-12-10T18:24:13Z</time>
      </trkpt>
      <trkpt lat="56.893858504532" lon="14.835521860603">
        <ele>179.2</ele>
        <time>2019-12-10T18:24:24Z</time>
      </trkpt>
      <trkpt lat="56.893957075676" lon="14.835635351529">
        <ele>179.6</ele>
        <time>2019-12-10T18:24:33Z</time>
      </trkpt>
      <trkpt lat="56.89410677641" lon="14.835858058612">
        <ele>179.4</ele>
        <time>2019-12-10T18:24:48Z</time>
      </trkpt>
      <trkpt lat="56.894157822181" lon="14.835997449609">
        <ele>179.6</ele>
        <time>2019-12-10T18:24:52Z</time>
      </trkpt>
      <trkpt lat="56.894157738362" lon="14.836072551433">
        <ele>179.4</ele>
        <time>2019-12-10T18:24:54Z</time>
      </trkpt>
      <trkpt lat="56.894143908227" lon="14.836101552807">
        <ele>178</ele>
        <time>2019-12-10T18:24:55Z</time>
      </trkpt>
      <trkpt lat="56.893981802281" lon="14.836264496943">
        <ele>178</ele>
        <time>2019-12-10T18:25:03Z</time>
      </trkpt>
      <trkpt lat="56.893847440424" lon="14.836485108551">
        <ele>178</ele>
        <time>2019-12-10T18:25:11Z</time>
      </trkpt>
      <trkpt lat="56.893691117989" lon="14.836721394312">
        <ele>178.6</ele>
        <time>2019-12-10T18:25:19Z</time>
      </trkpt>
      <trkpt lat="56.89352674893" lon="14.83686070149">
        <ele>178.2</ele>
        <time>2019-12-10T18:25:26Z</time>
      </trkpt>
      <trkpt lat="56.893373611617" lon="14.837089192084">
        <ele>178.6</ele>
        <time>2019-12-10T18:25:35Z</time>
      </trkpt>
      <trkpt lat="56.893300772906" lon="14.837311060977">
        <ele>178.8</ele>
        <time>2019-12-10T18:25:42Z</time>
      </trkpt>
      <trkpt lat="56.893296330499" lon="14.837328746786">
        <ele>179</ele>
        <time>2019-12-10T18:25:43Z</time>
      </trkpt>
      <trkpt lat="56.893291720454" lon="14.837325142569">
        <ele>179.2</ele>
        <time>2019-12-10T18:25:44Z</time>
      </trkpt>
      <trkpt lat="56.893313345756" lon="14.837279042119">
        <ele>179.6</ele>
        <time>2019-12-10T18:25:46Z</time>
      </trkpt>
      <trkpt lat="56.893336898895" lon="14.837212992747">
        <ele>179.4</ele>
        <time>2019-12-10T18:25:48Z</time>
      </trkpt>
      <trkpt lat="56.893441085912" lon="14.836921218808">
        <ele>178.6</ele>
        <time>2019-12-10T18:25:55Z</time>
      </trkpt>
      <trkpt lat="56.893609226826" lon="14.836723992701">
        <ele>179.2</ele>
        <time>2019-12-10T18:26:01Z</time>
      </trkpt>
      <trkpt lat="56.893774517894" lon="14.836508326414">
        <ele>179</ele>
        <time>2019-12-10T18:26:10Z</time>
      </trkpt>
      <trkpt lat="56.893934193089" lon="14.836260892726">
        <ele>178</ele>
        <time>2019-12-10T18:26:18Z</time>
      </trkpt>
      <trkpt lat="56.893959925522" lon="14.83622870623">
        <ele>178</ele>
        <time>2019-12-10T18:26:19Z</time>
      </trkpt>
      <trkpt lat="56.894154217964" lon="14.836122339919">
        <ele>177.4</ele>
        <time>2019-12-10T18:26:24Z</time>
      </trkpt>
      <trkpt lat="56.894340463782" lon="14.836051093769">
        <ele>178.2</ele>
        <time>2019-12-10T18:26:30Z</time>
      </trkpt>
      <trkpt lat="56.894246335045" lon="14.836133823122">
        <ele>177.8</ele>
        <time>2019-12-10T18:26:39Z</time>
      </trkpt>
      <trkpt lat="56.894243904294" lon="14.836175145889">
        <ele>177.8</ele>
        <time>2019-12-10T18:26:43Z</time>
      </trkpt>
      <trkpt lat="56.894241808819" lon="14.836167853636">
        <ele>177.8</ele>
        <time>2019-12-10T18:26:45Z</time>
      </trkpt>
      <trkpt lat="56.894223033363" lon="14.836029552286">
        <ele>177.4</ele>
        <time>2019-12-10T18:28:11Z</time>
      </trkpt>
      <trkpt lat="56.894253962574" lon="14.836014632504">
        <ele>177.4</ele>
        <time>2019-12-10T18:29:28Z</time>
      </trkpt>
      <trkpt lat="56.89428531088" lon="14.836022260033">
        <ele>177</ele>
        <time>2019-12-10T18:29:30Z</time>
      </trkpt>
      <trkpt lat="56.894396035779" lon="14.836022008576">
        <ele>178.6</ele>
        <time>2019-12-10T18:29:33Z</time>
      </trkpt>
      <trkpt lat="56.894612372618" lon="14.835898040275">
        <ele>178.6</ele>
        <time>2019-12-10T18:29:38Z</time>
      </trkpt>
      <trkpt lat="56.894704489699" lon="14.835828973419">
        <ele>178.8</ele>
        <time>2019-12-10T18:29:40Z</time>
      </trkpt>
      <trkpt lat="56.894890232603" lon="14.835686145843">
        <ele>178.2</ele>
        <time>2019-12-10T18:29:45Z</time>
      </trkpt>
      <trkpt lat="56.894963741866" lon="14.835619174462">
        <ele>177.8</ele>
        <time>2019-12-10T18:29:47Z</time>
      </trkpt>
      <trkpt lat="56.895153256625" lon="14.835521776784">
        <ele>177.8</ele>
        <time>2019-12-10T18:29:52Z</time>
      </trkpt>
      <trkpt lat="56.895191813365" lon="14.835510628857">
        <ele>177.6</ele>
        <time>2019-12-10T18:29:53Z</time>
      </trkpt>
      <trkpt lat="56.895384345608" lon="14.83547014428">
        <ele>177.6</ele>
        <time>2019-12-10T18:29:58Z</time>
      </trkpt>
      <trkpt lat="56.895531531772" lon="14.835430078798">
        <ele>178.6</ele>
        <time>2019-12-10T18:30:02Z</time>
      </trkpt>
      <trkpt lat="56.895744767308" lon="14.835351624214">
        <ele>180</ele>
        <time>2019-12-10T18:30:08Z</time>
      </trkpt>
      <trkpt lat="56.895938473017" lon="14.835260177685">
        <ele>180.2</ele>
        <time>2019-12-10T18:30:13Z</time>
      </trkpt>
      <trkpt lat="56.896117258944" lon="14.835149788062">
        <ele>179.8</ele>
        <time>2019-12-10T18:30:17Z</time>
      </trkpt>
      <trkpt lat="56.896155396589" lon="14.835133443357">
        <ele>179.4</ele>
        <time>2019-12-10T18:30:18Z</time>
      </trkpt>
      <trkpt lat="56.896237706847" lon="14.83510134068">
        <ele>178.4</ele>
        <time>2019-12-10T18:30:20Z</time>
      </trkpt>
      <trkpt lat="56.896324124236" lon="14.835085331251">
        <ele>177.8</ele>
        <time>2019-12-10T18:30:22Z</time>
      </trkpt>
      <trkpt lat="56.8964294009" lon="14.835087594364">
        <ele>177.8</ele>
        <time>2019-12-10T18:30:25Z</time>
      </trkpt>
      <trkpt lat="56.896503496896" lon="14.835082481405">
        <ele>178</ele>
        <time>2019-12-10T18:30:27Z</time>
      </trkpt>
      <trkpt lat="56.896723186495" lon="14.83508709145">
        <ele>177.6</ele>
        <time>2019-12-10T18:30:32Z</time>
      </trkpt>
      <trkpt lat="56.896803736554" lon="14.835093880789">
        <ele>177.4</ele>
        <time>2019-12-10T18:30:34Z</time>
      </trkpt>
      <trkpt lat="56.896843550579" lon="14.835104525802">
        <ele>177.4</ele>
        <time>2019-12-10T18:30:35Z</time>
      </trkpt>
      <trkpt lat="56.896920915516" lon="14.835141825257">
        <ele>177.2</ele>
        <time>2019-12-10T18:30:37Z</time>
      </trkpt>
      <trkpt lat="56.896988138354" lon="14.83520946719">
        <ele>177.6</ele>
        <time>2019-12-10T18:30:39Z</time>
      </trkpt>
      <trkpt lat="56.897054606821" lon="14.835278617865">
        <ele>178</ele>
        <time>2019-12-10T18:30:41Z</time>
      </trkpt>
      <trkpt lat="56.897119482727" lon="14.83533603388">
        <ele>178.4</ele>
        <time>2019-12-10T18:30:43Z</time>
      </trkpt>
      <trkpt lat="56.897292568962" lon="14.835486237528">
        <ele>179</ele>
        <time>2019-12-10T18:30:48Z</time>
      </trkpt>
      <trkpt lat="56.897365826768" lon="14.835516831463">
        <ele>179.2</ele>
        <time>2019-12-10T18:30:50Z</time>
      </trkpt>
      <trkpt lat="56.897559113382" lon="14.835515909454">
        <ele>179.4</ele>
        <time>2019-12-10T18:30:55Z</time>
      </trkpt>
      <trkpt lat="56.897638406156" lon="14.835522782612">
        <ele>179.4</ele>
        <time>2019-12-10T18:30:57Z</time>
      </trkpt>
      <trkpt lat="56.897829597295" lon="14.835473999954">
        <ele>179.2</ele>
        <time>2019-12-10T18:31:02Z</time>
      </trkpt>
      <trkpt lat="56.897978459839" lon="14.835373500973">
        <ele>178.2</ele>
        <time>2019-12-10T18:31:06Z</time>
      </trkpt>
      <trkpt lat="56.898176105041" lon="14.835204773326">
        <ele>178</ele>
        <time>2019-12-10T18:31:11Z</time>
      </trkpt>
      <trkpt lat="56.898332343657" lon="14.835036548593">
        <ele>177.6</ele>
        <time>2019-12-10T18:31:15Z</time>
      </trkpt>
      <trkpt lat="56.898407110205" lon="14.834968990479">
        <ele>176.8</ele>
        <time>2019-12-10T18:31:17Z</time>
      </trkpt>
      <trkpt lat="56.898610958013" lon="14.834863546177">
        <ele>176.2</ele>
        <time>2019-12-10T18:31:23Z</time>
      </trkpt>
      <trkpt lat="56.898813883812" lon="14.834911574464">
        <ele>175.4</ele>
        <time>2019-12-10T18:31:28Z</time>
      </trkpt>
      <trkpt lat="56.898880855193" lon="14.835004194459">
        <ele>174.4</ele>
        <time>2019-12-10T18:31:30Z</time>
      </trkpt>
      <trkpt lat="56.898914382793" lon="14.835161438903">
        <ele>173</ele>
        <time>2019-12-10T18:31:35Z</time>
      </trkpt>
      <trkpt lat="56.898916729725" lon="14.835162863826">
        <ele>173</ele>
        <time>2019-12-10T18:31:36Z</time>
      </trkpt>
      <trkpt lat="56.898923183788" lon="14.835163618197">
        <ele>172</ele>
        <time>2019-12-10T18:31:41Z</time>
      </trkpt>
      <trkpt lat="56.898951011696" lon="14.83517091045">
        <ele>173</ele>
        <time>2019-12-10T18:32:47Z</time>
      </trkpt>
      <trkpt lat="56.898905665617" lon="14.83500997797">
        <ele>173.2</ele>
        <time>2019-12-10T18:33:33Z</time>
      </trkpt>
      <trkpt lat="56.898753785589" lon="14.834889446248">
        <ele>174.2</ele>
        <time>2019-12-10T18:33:37Z</time>
      </trkpt>
      <trkpt lat="56.898631745125" lon="14.834895565035">
        <ele>175</ele>
        <time>2019-12-10T18:33:40Z</time>
      </trkpt>
      <trkpt lat="56.898559660785" lon="14.834912915568">
        <ele>175.2</ele>
        <time>2019-12-10T18:33:42Z</time>
      </trkpt>
      <trkpt lat="56.898524540624" lon="14.834928589721">
        <ele>175.4</ele>
        <time>2019-12-10T18:33:43Z</time>
      </trkpt>
      <trkpt lat="56.898378779383" lon="14.83508206231">
        <ele>175.8</ele>
        <time>2019-12-10T18:33:47Z</time>
      </trkpt>
      <trkpt lat="56.898309544889" lon="14.835170742812">
        <ele>175.6</ele>
        <time>2019-12-10T18:33:49Z</time>
      </trkpt>
      <trkpt lat="56.898184319303" lon="14.8353343575">
        <ele>176.2</ele>
        <time>2019-12-10T18:33:53Z</time>
      </trkpt>
      <trkpt lat="56.898153641549" lon="14.83535782682">
        <ele>176.2</ele>
        <time>2019-12-10T18:33:54Z</time>
      </trkpt>
      <trkpt lat="56.898078455906" lon="14.835430833169">
        <ele>177.4</ele>
        <time>2019-12-10T18:33:56Z</time>
      </trkpt>
      <trkpt lat="56.898041743184" lon="14.835476765981">
        <ele>178</ele>
        <time>2019-12-10T18:33:57Z</time>
      </trkpt>
      <trkpt lat="56.8979632886" lon="14.835546671027">
        <ele>178.2</ele>
        <time>2019-12-10T18:33:59Z</time>
      </trkpt>
      <trkpt lat="56.897888270595" lon="14.835596375694">
        <ele>178.4</ele>
        <time>2019-12-10T18:34:01Z</time>
      </trkpt>
      <trkpt lat="56.897815180427" lon="14.835635519167">
        <ele>178.8</ele>
        <time>2019-12-10T18:34:03Z</time>
      </trkpt>
      <trkpt lat="56.897702360053" lon="14.835632250226">
        <ele>179.6</ele>
        <time>2019-12-10T18:34:06Z</time>
      </trkpt>
      <trkpt lat="56.897578391752" lon="14.835620431747">
        <ele>180.6</ele>
        <time>2019-12-10T18:34:09Z</time>
      </trkpt>
      <trkpt lat="56.897487615775" lon="14.835603667947">
        <ele>181.2</ele>
        <time>2019-12-10T18:34:11Z</time>
      </trkpt>
      <trkpt lat="56.897318133757" lon="14.8355019955">
        <ele>181</ele>
        <time>2019-12-10T18:34:15Z</time>
      </trkpt>
      <trkpt lat="56.897154183793" lon="14.835355396069">
        <ele>179.4</ele>
        <time>2019-12-10T18:34:19Z</time>
      </trkpt>
      <trkpt lat="56.896987300164" lon="14.835223297325">
        <ele>179</ele>
        <time>2019-12-10T18:34:23Z</time>
      </trkpt>
      <trkpt lat="56.896944301017" lon="14.835203683679">
        <ele>179.2</ele>
        <time>2019-12-10T18:34:24Z</time>
      </trkpt>
      <trkpt lat="56.896752020231" lon="14.835187087517">
        <ele>179.2</ele>
        <time>2019-12-10T18:34:28Z</time>
      </trkpt>
      <trkpt lat="56.89659117157" lon="14.835190691734">
        <ele>178.6</ele>
        <time>2019-12-10T18:34:32Z</time>
      </trkpt>
      <trkpt lat="56.896553369201" lon="14.835184656766">
        <ele>178.2</ele>
        <time>2019-12-10T18:34:33Z</time>
      </trkpt>
      <trkpt lat="56.896352455058" lon="14.835176274866">
        <ele>178</ele>
        <time>2019-12-10T18:34:38Z</time>
      </trkpt>
      <trkpt lat="56.896184314144" lon="14.835216256529">
        <ele>177.8</ele>
        <time>2019-12-10T18:34:42Z</time>
      </trkpt>
      <trkpt lat="56.896005612036" lon="14.83529328619">
        <ele>178.2</ele>
        <time>2019-12-10T18:34:47Z</time>
      </trkpt>
      <trkpt lat="56.895938975931" lon="14.835324131582">
        <ele>179.2</ele>
        <time>2019-12-10T18:34:49Z</time>
      </trkpt>
      <trkpt lat="56.89590553215" lon="14.83534357759">
        <ele>180</ele>
        <time>2019-12-10T18:34:50Z</time>
      </trkpt>
      <trkpt lat="56.895870495808" lon="14.835367633643">
        <ele>180.6</ele>
        <time>2019-12-10T18:34:51Z</time>
      </trkpt>
      <trkpt lat="56.89573789415" lon="14.835441562001">
        <ele>181.6</ele>
        <time>2019-12-10T18:34:55Z</time>
      </trkpt>
      <trkpt lat="56.895537650559" lon="14.835467042977">
        <ele>181.6</ele>
        <time>2019-12-10T18:35:00Z</time>
      </trkpt>
      <trkpt lat="56.895413011706" lon="14.835485483157">
        <ele>180.2</ele>
        <time>2019-12-10T18:35:03Z</time>
      </trkpt>
      <trkpt lat="56.895290049233" lon="14.83552630301">
        <ele>178.8</ele>
        <time>2019-12-10T18:35:06Z</time>
      </trkpt>
      <trkpt lat="56.895102881406" lon="14.835582797016">
        <ele>177.8</ele>
        <time>2019-12-10T18:35:11Z</time>
      </trkpt>
      <trkpt lat="56.894935075768" lon="14.835713722294">
        <ele>177.8</ele>
        <time>2019-12-10T18:35:16Z</time>
      </trkpt>
      <trkpt lat="56.894771377261" lon="14.835849173798">
        <ele>177.6</ele>
        <time>2019-12-10T18:35:21Z</time>
      </trkpt>
      <trkpt lat="56.894595524999" lon="14.835998623075">
        <ele>178</ele>
        <time>2019-12-10T18:35:26Z</time>
      </trkpt>
      <trkpt lat="56.894464348264" lon="14.836071377967">
        <ele>178.8</ele>
        <time>2019-12-10T18:35:30Z</time>
      </trkpt>
      <trkpt lat="56.894308109648" lon="14.836143294669">
        <ele>178.6</ele>
        <time>2019-12-10T18:35:38Z</time>
      </trkpt>
      <trkpt lat="56.894285394699" lon="14.836165171428">
        <ele>178.4</ele>
        <time>2019-12-10T18:35:40Z</time>
      </trkpt>
      <trkpt lat="56.894271313107" lon="14.836168775645">
        <ele>178.4</ele>
        <time>2019-12-10T18:35:42Z</time>
      </trkpt>
      <trkpt lat="56.894131586834" lon="14.836134577493">
        <ele>178.6</ele>
        <time>2019-12-10T18:37:29Z</time>
      </trkpt>
      <trkpt lat="56.894062855254" lon="14.836176403174">
        <ele>178.6</ele>
        <time>2019-12-10T18:37:32Z</time>
      </trkpt>
      <trkpt lat="56.893894630521" lon="14.836331049229">
        <ele>178.4</ele>
        <time>2019-12-10T18:37:37Z</time>
      </trkpt>
      <trkpt lat="56.893840064352" lon="14.836413024211">
        <ele>178.6</ele>
        <time>2019-12-10T18:37:39Z</time>
      </trkpt>
      <trkpt lat="56.893704026115" lon="14.836647130678">
        <ele>179</ele>
        <time>2019-12-10T18:37:44Z</time>
      </trkpt>
      <trkpt lat="56.893633031422" lon="14.836718293009">
        <ele>179.2</ele>
        <time>2019-12-10T18:37:46Z</time>
      </trkpt>
      <trkpt lat="56.893485007068" lon="14.836849385925">
        <ele>179.2</ele>
        <time>2019-12-10T18:37:50Z</time>
      </trkpt>
      <trkpt lat="56.893417365135" lon="14.836941251549">
        <ele>179</ele>
        <time>2019-12-10T18:37:52Z</time>
      </trkpt>
      <trkpt lat="56.893322984941" lon="14.837172256713">
        <ele>179.6</ele>
        <time>2019-12-10T18:37:56Z</time>
      </trkpt>
      <trkpt lat="56.893276633034" lon="14.837268397106">
        <ele>179.6</ele>
        <time>2019-12-10T18:37:58Z</time>
      </trkpt>
      <trkpt lat="56.893148138507" lon="14.837448356499">
        <ele>180.2</ele>
        <time>2019-12-10T18:38:02Z</time>
      </trkpt>
      <trkpt lat="56.892980165231" lon="14.837700903146">
        <ele>180.8</ele>
        <time>2019-12-10T18:38:07Z</time>
      </trkpt>
      <trkpt lat="56.892853933817" lon="14.837949761757">
        <ele>180</ele>
        <time>2019-12-10T18:38:11Z</time>
      </trkpt>
      <trkpt lat="56.892797188354" lon="14.838044728684">
        <ele>179.6</ele>
        <time>2019-12-10T18:38:13Z</time>
      </trkpt>
      <trkpt lat="56.892734156466" lon="14.838163164931">
        <ele>179.2</ele>
        <time>2019-12-10T18:38:15Z</time>
      </trkpt>
      <trkpt lat="56.89262569468" lon="14.838355026622">
        <ele>179.2</ele>
        <time>2019-12-10T18:38:19Z</time>
      </trkpt>
      <trkpt lat="56.892444897097" lon="14.838561975733">
        <ele>180</ele>
        <time>2019-12-10T18:38:24Z</time>
      </trkpt>
      <trkpt lat="56.892257142537" lon="14.838754591795">
        <ele>179.6</ele>
        <time>2019-12-10T18:38:29Z</time>
      </trkpt>
      <trkpt lat="56.892102161206" lon="14.838897419371">
        <ele>180.2</ele>
        <time>2019-12-10T18:38:33Z</time>
      </trkpt>
      <trkpt lat="56.892059329697" lon="14.838927426573">
        <ele>180.2</ele>
        <time>2019-12-10T18:38:34Z</time>
      </trkpt>
      <trkpt lat="56.892019096577" lon="14.838947124038">
        <ele>180</ele>
        <time>2019-12-10T18:38:35Z</time>
      </trkpt>
      <trkpt lat="56.891810219629" lon="14.838998002171">
        <ele>180.2</ele>
        <time>2019-12-10T18:38:40Z</time>
      </trkpt>
      <trkpt lat="56.891734111977" lon="14.839003031311">
        <ele>180.8</ele>
        <time>2019-12-10T18:38:42Z</time>
      </trkpt>
      <trkpt lat="56.891654567746" lon="14.839005713519">
        <ele>181.2</ele>
        <time>2019-12-10T18:38:44Z</time>
      </trkpt>
      <trkpt lat="56.891530012712" lon="14.839024991889">
        <ele>181.2</ele>
        <time>2019-12-10T18:38:47Z</time>
      </trkpt>
      <trkpt lat="56.891447953911" lon="14.839066901389">
        <ele>181.2</ele>
        <time>2019-12-10T18:38:49Z</time>
      </trkpt>
      <trkpt lat="56.891283333395" lon="14.839271419749">
        <ele>181.2</ele>
        <time>2019-12-10T18:38:54Z</time>
      </trkpt>
      <trkpt lat="56.891258858247" lon="14.839308467747">
        <ele>181.2</ele>
        <time>2019-12-10T18:38:55Z</time>
      </trkpt>
      <trkpt lat="56.891160370922" lon="14.839445511812">
        <ele>182.6</ele>
        <time>2019-12-10T18:38:59Z</time>
      </trkpt>
      <trkpt lat="56.891140338181" lon="14.839476273385">
        <ele>183</ele>
        <time>2019-12-10T18:39:00Z</time>
      </trkpt>
      <trkpt lat="56.891073282981" lon="14.839560092385">
        <ele>184</ele>
        <time>2019-12-10T18:39:03Z</time>
      </trkpt>
      <trkpt lat="56.890981082081" lon="14.839636367675">
        <ele>185.4</ele>
        <time>2019-12-10T18:39:06Z</time>
      </trkpt>
      <trkpt lat="56.890790226218" lon="14.839787325694">
        <ele>184.8</ele>
        <time>2019-12-10T18:39:12Z</time>
      </trkpt>
      <trkpt lat="56.890585624039" lon="14.839895200747">
        <ele>184.6</ele>
        <time>2019-12-10T18:39:18Z</time>
      </trkpt>
      <trkpt lat="56.890383704068" lon="14.839973236236">
        <ele>185</ele>
        <time>2019-12-10T18:39:23Z</time>
      </trkpt>
      <trkpt lat="56.890206762159" lon="14.840048673336">
        <ele>184.4</ele>
        <time>2019-12-10T18:39:28Z</time>
      </trkpt>
      <trkpt lat="56.890136605656" lon="14.840086391886">
        <ele>184.2</ele>
        <time>2019-12-10T18:39:30Z</time>
      </trkpt>
      <trkpt lat="56.890054546855" lon="14.840140036046">
        <ele>184.4</ele>
        <time>2019-12-10T18:39:35Z</time>
      </trkpt>
      <trkpt lat="56.890053121932" lon="14.840140706598">
        <ele>183.6</ele>
        <time>2019-12-10T18:39:39Z</time>
      </trkpt>
      <trkpt lat="56.890006602387" lon="14.840089577008">
        <ele>183</ele>
        <time>2019-12-10T18:40:03Z</time>
      </trkpt>
      <trkpt lat="56.889932171115" lon="14.840176329673">
        <ele>183.8</ele>
        <time>2019-12-10T18:40:54Z</time>
      </trkpt>
      <trkpt lat="56.890031748087" lon="14.840002572886">
        <ele>183.6</ele>
        <time>2019-12-10T18:41:32Z</time>
      </trkpt>
      <trkpt lat="56.89006670061" lon="14.839976169901">
        <ele>184</ele>
        <time>2019-12-10T18:41:33Z</time>
      </trkpt>
      <trkpt lat="56.890108274834" lon="14.839952197667">
        <ele>184.4</ele>
        <time>2019-12-10T18:41:34Z</time>
      </trkpt>
      <trkpt lat="56.890301226172" lon="14.839871563789">
        <ele>184.8</ele>
        <time>2019-12-10T18:41:38Z</time>
      </trkpt>
      <trkpt lat="56.890487891085" lon="14.839836695085">
        <ele>184.4</ele>
        <time>2019-12-10T18:41:42Z</time>
      </trkpt>
      <trkpt lat="56.890678495491" lon="14.83973904595">
        <ele>185</ele>
        <time>2019-12-10T18:41:46Z</time>
      </trkpt>
      <trkpt lat="56.89085208464" lon="14.839628991603">
        <ele>185.4</ele>
        <time>2019-12-10T18:41:50Z</time>
      </trkpt>
      <trkpt lat="56.890943363531" lon="14.83958062804">
        <ele>185.2</ele>
        <time>2019-12-10T18:41:52Z</time>
      </trkpt>
      <trkpt lat="56.891078815035" lon="14.839484571466">
        <ele>185</ele>
        <time>2019-12-10T18:41:55Z</time>
      </trkpt>
      <trkpt lat="56.891228264312" lon="14.839320034769">
        <ele>184</ele>
        <time>2019-12-10T18:41:59Z</time>
      </trkpt>
      <trkpt lat="56.891401434366" lon="14.839130436191">
        <ele>183</ele>
        <time>2019-12-10T18:42:03Z</time>
      </trkpt>
      <trkpt lat="56.891527498142" lon="14.839060363507">
        <ele>181.6</ele>
        <time>2019-12-10T18:42:06Z</time>
      </trkpt>
      <trkpt lat="56.891652136995" lon="14.839027757916">
        <ele>180.4</ele>
        <time>2019-12-10T18:42:09Z</time>
      </trkpt>
      <trkpt lat="56.891855314251" lon="14.838979142896">
        <ele>180.2</ele>
        <time>2019-12-10T18:42:14Z</time>
      </trkpt>
      <trkpt lat="56.892028484305" lon="14.838902197054">
        <ele>180</ele>
        <time>2019-12-10T18:42:18Z</time>
      </trkpt>
      <trkpt lat="56.892139209204" lon="14.83881033143">
        <ele>180</ele>
        <time>2019-12-10T18:42:21Z</time>
      </trkpt>
      <trkpt lat="56.892261249668" lon="14.838691392269">
        <ele>180.2</ele>
        <time>2019-12-10T18:42:24Z</time>
      </trkpt>
      <trkpt lat="56.892453111359" lon="14.838497938017">
        <ele>180</ele>
        <time>2019-12-10T18:42:29Z</time>
      </trkpt>
      <trkpt lat="56.892549922304" lon="14.838368856757">
        <ele>179.4</ele>
        <time>2019-12-10T18:42:32Z</time>
      </trkpt>
      <trkpt lat="56.892706077101" lon="14.83813475029">
        <ele>179.6</ele>
        <time>2019-12-10T18:42:37Z</time>
      </trkpt>
      <trkpt lat="56.892842869709" lon="14.837895363226">
        <ele>179.8</ele>
        <time>2019-12-10T18:42:42Z</time>
      </trkpt>
      <trkpt lat="56.89292157575" lon="14.837761336645">
        <ele>179.8</ele>
        <time>2019-12-10T18:42:45Z</time>
      </trkpt>
      <trkpt lat="56.893038251798" lon="14.837594285378">
        <ele>180</ele>
        <time>2019-12-10T18:42:49Z</time>
      </trkpt>
      <trkpt lat="56.893184851229" lon="14.837424551903">
        <ele>180</ele>
        <time>2019-12-10T18:42:53Z</time>
      </trkpt>
      <trkpt lat="56.893257773759" lon="14.837325813121">
        <ele>180</ele>
        <time>2019-12-10T18:42:55Z</time>
      </trkpt>
      <trkpt lat="56.893381322965" lon="14.837034961191">
        <ele>179.6</ele>
        <time>2019-12-10T18:43:00Z</time>
      </trkpt>
      <trkpt lat="56.89344041536" lon="14.836933288744">
        <ele>179.6</ele>
        <time>2019-12-10T18:43:02Z</time>
      </trkpt>
      <trkpt lat="56.89359967146" lon="14.836779313241">
        <ele>179</ele>
        <time>2019-12-10T18:43:06Z</time>
      </trkpt>
      <trkpt lat="56.893703858477" lon="14.836683759581">
        <ele>178.6</ele>
        <time>2019-12-10T18:43:09Z</time>
      </trkpt>
      <trkpt lat="56.893767225641" lon="14.836599270029">
        <ele>178.6</ele>
        <time>2019-12-10T18:43:11Z</time>
      </trkpt>
      <trkpt lat="56.893915752909" lon="14.836398691162">
        <ele>179</ele>
        <time>2019-12-10T18:43:16Z</time>
      </trkpt>
      <trkpt lat="56.89397015144" lon="14.836333144704">
        <ele>178.8</ele>
        <time>2019-12-10T18:43:18Z</time>
      </trkpt>
      <trkpt lat="56.894056233553" lon="14.836241111442">
        <ele>178.6</ele>
        <time>2019-12-10T18:43:21Z</time>
      </trkpt>
      <trkpt lat="56.89424423957" lon="14.836130638">
        <ele>178.8</ele>
        <time>2019-12-10T18:43:26Z</time>
      </trkpt>
      <trkpt lat="56.894398717987" lon="14.836072635252">
        <ele>179.2</ele>
        <time>2019-12-10T18:43:32Z</time>
      </trkpt>
      <trkpt lat="56.894347839854" lon="14.836113958019">
        <ele>179.6</ele>
        <time>2019-12-10T18:43:38Z</time>
      </trkpt>
      <trkpt lat="56.894311881503" lon="14.83613818171">
        <ele>179.6</ele>
        <time>2019-12-10T18:43:43Z</time>
      </trkpt>
      <trkpt lat="56.894257231515" lon="14.836282266571">
        <ele>179.2</ele>
        <time>2019-12-10T18:44:02Z</time>
      </trkpt>
      <trkpt lat="56.894165198253" lon="14.836134074579">
        <ele>177.4</ele>
        <time>2019-12-10T18:45:01Z</time>
      </trkpt>
      <trkpt lat="56.894153295955" lon="14.836075988012">
        <ele>178.4</ele>
        <time>2019-12-10T18:45:10Z</time>
      </trkpt>
      <trkpt lat="56.894059670132" lon="14.835879097181">
        <ele>178.8</ele>
        <time>2019-12-10T18:45:34Z</time>
      </trkpt>
      <trkpt lat="56.893963948834" lon="14.835736437243">
        <ele>178.8</ele>
        <time>2019-12-10T18:45:37Z</time>
      </trkpt>
      <trkpt lat="56.893806452933" lon="14.835503504242">
        <ele>178.8</ele>
        <time>2019-12-10T18:45:42Z</time>
      </trkpt>
      <trkpt lat="56.89371031254" lon="14.835399652501">
        <ele>179.4</ele>
        <time>2019-12-10T18:45:45Z</time>
      </trkpt>
      <trkpt lat="56.893673515999" lon="14.835365789625">
        <ele>180.6</ele>
        <time>2019-12-10T18:45:46Z</time>
      </trkpt>
      <trkpt lat="56.893499423936" lon="14.835138975411">
        <ele>181.6</ele>
        <time>2019-12-10T18:45:51Z</time>
      </trkpt>
      <trkpt lat="56.893351902496" lon="14.834941916942">
        <ele>181.4</ele>
        <time>2019-12-10T18:45:55Z</time>
      </trkpt>
      <trkpt lat="56.89330043763" lon="14.834803950868">
        <ele>181.4</ele>
        <time>2019-12-10T18:45:57Z</time>
      </trkpt>
      <trkpt lat="56.893258695768" lon="14.834478481691">
        <ele>181.2</ele>
        <time>2019-12-10T18:46:01Z</time>
      </trkpt>
      <trkpt lat="56.893243356891" lon="14.834403296048">
        <ele>181.2</ele>
        <time>2019-12-10T18:46:02Z</time>
      </trkpt>
      <trkpt lat="56.893206476531" lon="14.834273963331">
        <ele>181.2</ele>
        <time>2019-12-10T18:46:04Z</time>
      </trkpt>
      <trkpt lat="56.893159789348" lon="14.834156532912">
        <ele>181.4</ele>
        <time>2019-12-10T18:46:06Z</time>
      </trkpt>
      <trkpt lat="56.893131709983" lon="14.834103978399">
        <ele>181.6</ele>
        <time>2019-12-10T18:46:07Z</time>
      </trkpt>
      <trkpt lat="56.893017799962" lon="14.833848330449">
        <ele>182.2</ele>
        <time>2019-12-10T18:46:12Z</time>
      </trkpt>
      <trkpt lat="56.892911852746" lon="14.833552952293">
        <ele>182.6</ele>
        <time>2019-12-10T18:46:17Z</time>
      </trkpt>
      <trkpt lat="56.892874218015" lon="14.833409286527">
        <ele>182.8</ele>
        <time>2019-12-10T18:46:19Z</time>
      </trkpt>
      <trkpt lat="56.892868937418" lon="14.833338962386">
        <ele>182.8</ele>
        <time>2019-12-10T18:46:20Z</time>
      </trkpt>
      <trkpt lat="56.893043029481" lon="14.833253634644">
        <ele>183.2</ele>
        <time>2019-12-10T18:46:25Z</time>
      </trkpt>
      <trkpt lat="56.893242434882" lon="14.833387912682">
        <ele>182.8</ele>
        <time>2019-12-10T18:46:30Z</time>
      </trkpt>
      <trkpt lat="56.893434631849" lon="14.833570135188">
        <ele>182</ele>
        <time>2019-12-10T18:46:35Z</time>
      </trkpt>
      <trkpt lat="56.893517864116" lon="14.833640040234">
        <ele>181.8</ele>
        <time>2019-12-10T18:46:37Z</time>
      </trkpt>
      <trkpt lat="56.893565892403" lon="14.833669041608">
        <ele>181.6</ele>
        <time>2019-12-10T18:46:38Z</time>
      </trkpt>
      <trkpt lat="56.893650465774" lon="14.833724278329">
        <ele>180.8</ele>
        <time>2019-12-10T18:46:40Z</time>
      </trkpt>
      <trkpt lat="56.893694554568" lon="14.8337417965">
        <ele>180.4</ele>
        <time>2019-12-10T18:46:41Z</time>
      </trkpt>
      <trkpt lat="56.893789521495" lon="14.833755458997">
        <ele>179.6</ele>
        <time>2019-12-10T18:46:43Z</time>
      </trkpt>
      <trkpt lat="56.893874681599" lon="14.833764511449">
        <ele>179.2</ele>
        <time>2019-12-10T18:46:45Z</time>
      </trkpt>
      <trkpt lat="56.894087581859" lon="14.833720590293">
        <ele>179.4</ele>
        <time>2019-12-10T18:46:50Z</time>
      </trkpt>
      <trkpt lat="56.894165198253" lon="14.833673651653">
        <ele>180</ele>
        <time>2019-12-10T18:46:52Z</time>
      </trkpt>
      <trkpt lat="56.89420735921" lon="14.833639788777">
        <ele>180.2</ele>
        <time>2019-12-10T18:46:53Z</time>
      </trkpt>
      <trkpt lat="56.894281790482" lon="14.833564184039">
        <ele>180.2</ele>
        <time>2019-12-10T18:46:55Z</time>
      </trkpt>
      <trkpt lat="56.89443786146" lon="14.833338040377">
        <ele>180.2</ele>
        <time>2019-12-10T18:47:00Z</time>
      </trkpt>
      <trkpt lat="56.894573815878" lon="14.833102844263">
        <ele>179</ele>
        <time>2019-12-10T18:47:05Z</time>
      </trkpt>
      <trkpt lat="56.894737346747" lon="14.832877035877">
        <ele>178.4</ele>
        <time>2019-12-10T18:47:10Z</time>
      </trkpt>
      <trkpt lat="56.894770874347" lon="14.832848537417">
        <ele>178</ele>
        <time>2019-12-10T18:47:11Z</time>
      </trkpt>
      <trkpt lat="56.894803060843" lon="14.832816770016">
        <ele>177.6</ele>
        <time>2019-12-10T18:47:12Z</time>
      </trkpt>
      <trkpt lat="56.894922419099" lon="14.832749630997">
        <ele>176.8</ele>
        <time>2019-12-10T18:47:15Z</time>
      </trkpt>
      <trkpt lat="56.895074550584" lon="14.832686682928">
        <ele>178</ele>
        <time>2019-12-10T18:47:20Z</time>
      </trkpt>
      <trkpt lat="56.895271357596" lon="14.832655669898">
        <ele>179</ele>
        <time>2019-12-10T18:47:26Z</time>
      </trkpt>
      <trkpt lat="56.895375376975" lon="14.832593895295">
        <ele>179</ele>
        <time>2019-12-10T18:47:29Z</time>
      </trkpt>
      <trkpt lat="56.895478390526" lon="14.832518206738">
        <ele>180.2</ele>
        <time>2019-12-10T18:47:34Z</time>
      </trkpt>
      <trkpt lat="56.89549649543" lon="14.832493480133">
        <ele>180</ele>
        <time>2019-12-10T18:47:37Z</time>
      </trkpt>
      <trkpt lat="56.895501440751" lon="14.832522900602">
        <ele>179</ele>
        <time>2019-12-10T18:47:42Z</time>
      </trkpt>
      <trkpt lat="56.895470846816" lon="14.832555506193">
        <ele>179.6</ele>
        <time>2019-12-10T18:48:53Z</time>
      </trkpt>
      <trkpt lat="56.895491801566" lon="14.832523571154">
        <ele>179.8</ele>
        <time>2019-12-10T18:48:55Z</time>
      </trkpt>
      <trkpt lat="56.895517701637" lon="14.832468502071">
        <ele>180</ele>
        <time>2019-12-10T18:48:58Z</time>
      </trkpt>
      <trkpt lat="56.895534465437" lon="14.832449810434">
        <ele>180</ele>
        <time>2019-12-10T18:49:00Z</time>
      </trkpt>
      <trkpt lat="56.89549146629" lon="14.832543855352">
        <ele>180.2</ele>
        <time>2019-12-10T18:49:30Z</time>
      </trkpt>
      <trkpt lat="56.895376718079" lon="14.832640247202">
        <ele>180.2</ele>
        <time>2019-12-10T18:49:34Z</time>
      </trkpt>
      <trkpt lat="56.895292563803" lon="14.832670924956">
        <ele>180.4</ele>
        <time>2019-12-10T18:49:36Z</time>
      </trkpt>
      <trkpt lat="56.895208912441" lon="14.832652484776">
        <ele>180.4</ele>
        <time>2019-12-10T18:49:38Z</time>
      </trkpt>
      <trkpt lat="56.895126350726" lon="14.832609737086">
        <ele>180</ele>
        <time>2019-12-10T18:49:40Z</time>
      </trkpt>
      <trkpt lat="56.894987295005" lon="14.832604875584">
        <ele>179</ele>
        <time>2019-12-10T18:49:43Z</time>
      </trkpt>
      <trkpt lat="56.89494161365" lon="14.832618286624">
        <ele>178.8</ele>
        <time>2019-12-10T18:49:44Z</time>
      </trkpt>
      <trkpt lat="56.894895597019" lon="14.832644773428">
        <ele>178.8</ele>
        <time>2019-12-10T18:49:45Z</time>
      </trkpt>
      <trkpt lat="56.894810520734" lon="14.832714762293">
        <ele>178.4</ele>
        <time>2019-12-10T18:49:47Z</time>
      </trkpt>
      <trkpt lat="56.894737682023" lon="14.832822804984">
        <ele>178</ele>
        <time>2019-12-10T18:49:49Z</time>
      </trkpt>
      <trkpt lat="56.894687139166" lon="14.832928333105">
        <ele>178.2</ele>
        <time>2019-12-10T18:49:51Z</time>
      </trkpt>
      <trkpt lat="56.894567026539" lon="14.833175766793">
        <ele>178.2</ele>
        <time>2019-12-10T18:49:55Z</time>
      </trkpt>
      <trkpt lat="56.894421013841" lon="14.83342831344">
        <ele>178.4</ele>
        <time>2019-12-10T18:49:59Z</time>
      </trkpt>
      <trkpt lat="56.894279527369" lon="14.833624198443">
        <ele>179.4</ele>
        <time>2019-12-10T18:50:03Z</time>
      </trkpt>
      <trkpt lat="56.894210963427" lon="14.833675244214">
        <ele>179.8</ele>
        <time>2019-12-10T18:50:05Z</time>
      </trkpt>
      <trkpt lat="56.894168551013" lon="14.833704329407">
        <ele>180.2</ele>
        <time>2019-12-10T18:50:06Z</time>
      </trkpt>
      <trkpt lat="56.89412940754" lon="14.833719500646">
        <ele>180.4</ele>
        <time>2019-12-10T18:50:07Z</time>
      </trkpt>
      <trkpt lat="56.894042906332" lon="14.83373592917">
        <ele>181</ele>
        <time>2019-12-10T18:50:09Z</time>
      </trkpt>
      <trkpt lat="56.894001667384" lon="14.833728972193">
        <ele>181.2</ele>
        <time>2019-12-10T18:50:10Z</time>
      </trkpt>
      <trkpt lat="56.893955231658" lon="14.8337250327">
        <ele>181.2</ele>
        <time>2019-12-10T18:50:11Z</time>
      </trkpt>
      <trkpt lat="56.893768650564" lon="14.83368731415">
        <ele>180.4</ele>
        <time>2019-12-10T18:50:15Z</time>
      </trkpt>
      <trkpt lat="56.89373713462" lon="14.83365546293">
        <ele>180.2</ele>
        <time>2019-12-10T18:50:16Z</time>
      </trkpt>
      <trkpt lat="56.893571173" lon="14.83349369226">
        <ele>180.4</ele>
        <time>2019-12-10T18:50:21Z</time>
      </trkpt>
      <trkpt lat="56.893388531399" lon="14.833336363997">
        <ele>181.6</ele>
        <time>2019-12-10T18:50:27Z</time>
      </trkpt>
      <trkpt lat="56.89331887781" lon="14.833287665158">
        <ele>182.2</ele>
        <time>2019-12-10T18:50:29Z</time>
      </trkpt>
      <trkpt lat="56.8931185504" lon="14.833195715715">
        <ele>183.2</ele>
        <time>2019-12-10T18:50:34Z</time>
      </trkpt>
      <trkpt lat="56.89308250823" lon="14.833194626068">
        <ele>183.6</ele>
        <time>2019-12-10T18:50:35Z</time>
      </trkpt>
      <trkpt lat="56.892985529647" lon="14.833248856961">
        <ele>184.2</ele>
        <time>2019-12-10T18:50:38Z</time>
      </trkpt>
      <trkpt lat="56.892969017304" lon="14.833374920737">
        <ele>184.6</ele>
        <time>2019-12-10T18:50:40Z</time>
      </trkpt>
      <trkpt lat="56.893008160777" lon="14.833735845351">
        <ele>184.2</ele>
        <time>2019-12-10T18:50:45Z</time>
      </trkpt>
      <trkpt lat="56.893102792428" lon="14.834048490221">
        <ele>183.6</ele>
        <time>2019-12-10T18:50:50Z</time>
      </trkpt>
      <trkpt lat="56.893138834598" lon="14.834108588444">
        <ele>183.6</ele>
        <time>2019-12-10T18:50:51Z</time>
      </trkpt>
      <trkpt lat="56.89326607184" lon="14.834373540303">
        <ele>183.2</ele>
        <time>2019-12-10T18:50:55Z</time>
      </trkpt>
      <trkpt lat="56.893291720454" lon="14.834542603226">
        <ele>182.8</ele>
        <time>2019-12-10T18:50:57Z</time>
      </trkpt>
      <trkpt lat="56.893287780961" lon="14.834708564846">
        <ele>182.4</ele>
        <time>2019-12-10T18:50:59Z</time>
      </trkpt>
      <trkpt lat="56.893292726282" lon="14.834783499032">
        <ele>182.4</ele>
        <time>2019-12-10T18:51:00Z</time>
      </trkpt>
      <trkpt lat="56.893295743766" lon="14.834917860889">
        <ele>182.2</ele>
        <time>2019-12-10T18:51:02Z</time>
      </trkpt>
      <trkpt lat="56.893335138696" lon="14.835021796449">
        <ele>182.4</ele>
        <time>2019-12-10T18:51:04Z</time>
      </trkpt>
      <trkpt lat="56.893491293493" lon="14.835229751388">
        <ele>183.2</ele>
        <time>2019-12-10T18:51:09Z</time>
      </trkpt>
      <trkpt lat="56.893592463026" lon="14.835337877898">
        <ele>183.4</ele>
        <time>2019-12-10T18:51:12Z</time>
      </trkpt>
      <trkpt lat="56.893790275866" lon="14.835519429852">
        <ele>183.4</ele>
        <time>2019-12-10T18:51:17Z</time>
      </trkpt>
      <trkpt lat="56.893969397069" lon="14.83569058825">
        <ele>183</ele>
        <time>2019-12-10T18:51:22Z</time>
      </trkpt>
      <trkpt lat="56.894145165512" lon="14.835916564274">
        <ele>182.6</ele>
        <time>2019-12-10T18:51:28Z</time>
      </trkpt>
      <trkpt lat="56.894265697234" lon="14.836110689078">
        <ele>182.4</ele>
        <time>2019-12-10T18:51:36Z</time>
      </trkpt>
      <trkpt lat="56.894171065583" lon="14.836143043212">
        <ele>182.2</ele>
        <time>2019-12-10T18:52:36Z</time>
      </trkpt>
      <trkpt lat="56.894157151629" lon="14.836066181189">
        <ele>182.2</ele>
        <time>2019-12-10T18:53:42Z</time>
      </trkpt>
      <trkpt lat="56.894113314292" lon="14.835990492632">
        <ele>182.2</ele>
        <time>2019-12-10T18:53:47Z</time>
      </trkpt>
      <trkpt lat="56.893886500078" lon="14.835596794789">
        <ele>181.8</ele>
        <time>2019-12-10T18:54:01Z</time>
      </trkpt>
      <trkpt lat="56.893732021661" lon="14.835423876192">
        <ele>182.2</ele>
        <time>2019-12-10T18:54:09Z</time>
      </trkpt>
      <trkpt lat="56.893587769162" lon="14.835228410284">
        <ele>182.6</ele>
        <time>2019-12-10T18:54:17Z</time>
      </trkpt>
      <trkpt lat="56.893421556085" lon="14.835050881642">
        <ele>183</ele>
        <time>2019-12-10T18:54:26Z</time>
      </trkpt>
      <trkpt lat="56.893291804273" lon="14.834797329167">
        <ele>183</ele>
        <time>2019-12-10T18:54:34Z</time>
      </trkpt>
      <trkpt lat="56.893269508419" lon="14.834436991286">
        <ele>182.2</ele>
        <time>2019-12-10T18:54:42Z</time>
      </trkpt>
      <trkpt lat="56.893166997782" lon="14.83412652571">
        <ele>183.2</ele>
        <time>2019-12-10T18:54:50Z</time>
      </trkpt>
      <trkpt lat="56.89311519764" lon="14.834044466909">
        <ele>183.4</ele>
        <time>2019-12-10T18:54:53Z</time>
      </trkpt>
      <trkpt lat="56.89298527819" lon="14.833837182522">
        <ele>184.4</ele>
        <time>2019-12-10T18:55:00Z</time>
      </trkpt>
      <trkpt lat="56.892840606596" lon="14.833583797685">
        <ele>184.2</ele>
        <time>2019-12-10T18:55:09Z</time>
      </trkpt>
      <trkpt lat="56.892644302498" lon="14.833493273165">
        <ele>185</ele>
        <time>2019-12-10T18:55:18Z</time>
      </trkpt>
      <trkpt lat="56.8924563803" lon="14.833473910976">
        <ele>185.4</ele>
        <time>2019-12-10T18:55:27Z</time>
      </trkpt>
      <trkpt lat="56.892431737514" lon="14.833483969256">
        <ele>185.6</ele>
        <time>2019-12-10T18:55:28Z</time>
      </trkpt>
      <trkpt lat="56.892333920741" lon="14.833540463262">
        <ele>186.8</ele>
        <time>2019-12-10T18:55:33Z</time>
      </trkpt>
      <trkpt lat="56.892236103968" lon="14.833581869848">
        <ele>187.8</ele>
        <time>2019-12-10T18:55:38Z</time>
      </trkpt>
      <trkpt lat="56.892150943864" lon="14.83357583488">
        <ele>189</ele>
        <time>2019-12-10T18:55:42Z</time>
      </trkpt>
      <trkpt lat="56.891957741069" lon="14.833602321684">
        <ele>189.4</ele>
        <time>2019-12-10T18:55:50Z</time>
      </trkpt>
      <trkpt lat="56.891776440572" lon="14.833754956083">
        <ele>189</ele>
        <time>2019-12-10T18:55:58Z</time>
      </trkpt>
      <trkpt lat="56.891609473124" lon="14.833874314339">
        <ele>189.8</ele>
        <time>2019-12-10T18:56:06Z</time>
      </trkpt>
      <trkpt lat="56.891541495915" lon="14.833897448383">
        <ele>190.2</ele>
        <time>2019-12-10T18:56:09Z</time>
      </trkpt>
      <trkpt lat="56.89136338054" lon="14.833971292922">
        <ele>190.8</ele>
        <time>2019-12-10T18:56:17Z</time>
      </trkpt>
      <trkpt lat="56.891321303402" lon="14.833981435021">
        <ele>191.4</ele>
        <time>2019-12-10T18:56:19Z</time>
      </trkpt>
      <trkpt lat="56.891146205511" lon="14.833934328743">
        <ele>191.8</ele>
        <time>2019-12-10T18:56:27Z</time>
      </trkpt>
      <trkpt lat="56.890979740977" lon="14.833781359068">
        <ele>190.8</ele>
        <time>2019-12-10T18:56:34Z</time>
      </trkpt>
      <trkpt lat="56.890934897812" lon="14.833727379632">
        <ele>190</ele>
        <time>2019-12-10T18:56:36Z</time>
      </trkpt>
      <trkpt lat="56.890747897623" lon="14.83361690619">
        <ele>189</ele>
        <time>2019-12-10T18:56:43Z</time>
      </trkpt>
      <trkpt lat="56.89069534311" lon="14.833591089938">
        <ele>188.8</ele>
        <time>2019-12-10T18:56:45Z</time>
      </trkpt>
      <trkpt lat="56.890592581016" lon="14.833524034738">
        <ele>187.8</ele>
        <time>2019-12-10T18:56:49Z</time>
      </trkpt>
      <trkpt lat="56.890491243845" lon="14.833370981244">
        <ele>186.6</ele>
        <time>2019-12-10T18:56:54Z</time>
      </trkpt>
      <trkpt lat="56.890426619396" lon="14.833262938553">
        <ele>185.4</ele>
        <time>2019-12-10T18:56:57Z</time>
      </trkpt>
      <trkpt lat="56.890347075165" lon="14.833109885059">
        <ele>184.2</ele>
        <time>2019-12-10T18:57:01Z</time>
      </trkpt>
      <trkpt lat="56.890292508996" lon="14.833009972811">
        <ele>183</ele>
        <time>2019-12-10T18:57:04Z</time>
      </trkpt>
      <trkpt lat="56.890158398596" lon="14.832768154996">
        <ele>182.4</ele>
        <time>2019-12-10T18:57:11Z</time>
      </trkpt>
      <trkpt lat="56.890029736431" lon="14.832504125146">
        <ele>182.4</ele>
        <time>2019-12-10T18:57:19Z</time>
      </trkpt>
      <trkpt lat="56.889883053181" lon="14.832299774424">
        <ele>182.8</ele>
        <time>2019-12-10T18:57:26Z</time>
      </trkpt>
      <trkpt lat="56.88974818841" lon="14.832044210293">
        <ele>183</ele>
        <time>2019-12-10T18:57:33Z</time>
      </trkpt>
      <trkpt lat="56.889619777702" lon="14.831789316714">
        <ele>183.6</ele>
        <time>2019-12-10T18:57:42Z</time>
      </trkpt>
      <trkpt lat="56.889579879858" lon="14.831753777458">
        <ele>184</ele>
        <time>2019-12-10T18:57:44Z</time>
      </trkpt>
      <trkpt lat="56.889441075594" lon="14.831655457771">
        <ele>182.8</ele>
        <time>2019-12-10T18:57:50Z</time>
      </trkpt>
      <trkpt lat="56.889330434514" lon="14.831566022898">
        <ele>181.8</ele>
        <time>2019-12-10T18:57:55Z</time>
      </trkpt>
      <trkpt lat="56.889281400399" lon="14.831522939932">
        <ele>180.8</ele>
        <time>2019-12-10T18:57:57Z</time>
      </trkpt>
      <trkpt lat="56.889209818973" lon="14.831473151446">
        <ele>179.8</ele>
        <time>2019-12-10T18:58:00Z</time>
      </trkpt>
      <trkpt lat="56.889056094927" lon="14.831332335526">
        <ele>178.6</ele>
        <time>2019-12-10T18:58:07Z</time>
      </trkpt>
      <trkpt lat="56.888887451099" lon="14.831195710556">
        <ele>177.4</ele>
        <time>2019-12-10T18:58:13Z</time>
      </trkpt>
      <trkpt lat="56.888850989834" lon="14.831128739175">
        <ele>176.4</ele>
        <time>2019-12-10T18:58:15Z</time>
      </trkpt>
      <trkpt lat="56.888834058396" lon="14.831092697005">
        <ele>176</ele>
        <time>2019-12-10T18:58:16Z</time>
      </trkpt>
      <trkpt lat="56.888787538851" lon="14.831025893262">
        <ele>175</ele>
        <time>2019-12-10T18:58:18Z</time>
      </trkpt>
      <trkpt lat="56.888709754819" lon="14.830937883312">
        <ele>173.6</ele>
        <time>2019-12-10T18:58:21Z</time>
      </trkpt>
      <trkpt lat="56.888600371024" lon="14.830756498996">
        <ele>172.6</ele>
        <time>2019-12-10T18:58:26Z</time>
      </trkpt>
      <trkpt lat="56.88850347626" lon="14.830642588975">
        <ele>171.6</ele>
        <time>2019-12-10T18:58:31Z</time>
      </trkpt>
      <trkpt lat="56.888308932361" lon="14.830608809918">
        <ele>171</ele>
        <time>2019-12-10T18:58:39Z</time>
      </trkpt>
      <trkpt lat="56.888279260435" lon="14.830578718897">
        <ele>170.8</ele>
        <time>2019-12-10T18:58:41Z</time>
      </trkpt>
      <trkpt lat="56.888267693413" lon="14.830482746142">
        <ele>170.4</ele>
        <time>2019-12-10T18:58:44Z</time>
      </trkpt>
      <trkpt lat="56.888320080288" lon="14.830144201201">
        <ele>170</ele>
        <time>2019-12-10T18:58:52Z</time>
      </trkpt>
      <trkpt lat="56.88843725925" lon="14.829894923495">
        <ele>169.6</ele>
        <time>2019-12-10T18:59:00Z</time>
      </trkpt>
      <trkpt lat="56.888627360742" lon="14.829847146665">
        <ele>169.4</ele>
        <time>2019-12-10T18:59:09Z</time>
      </trkpt>
      <trkpt lat="56.888821234089" lon="14.829783779501">
        <ele>169.6</ele>
        <time>2019-12-10T18:59:16Z</time>
      </trkpt>
      <trkpt lat="56.889009994477" lon="14.829725860572">
        <ele>169.8</ele>
        <time>2019-12-10T18:59:24Z</time>
      </trkpt>
      <trkpt lat="56.889192887535" lon="14.829635084595">
        <ele>170.2</ele>
        <time>2019-12-10T18:59:32Z</time>
      </trkpt>
      <trkpt lat="56.889252650482" lon="14.829615135673">
        <ele>170.4</ele>
        <time>2019-12-10T18:59:35Z</time>
      </trkpt>
      <trkpt lat="56.889437387558" lon="14.829566436834">
        <ele>170.6</ele>
        <time>2019-12-10T18:59:43Z</time>
      </trkpt>
      <trkpt lat="56.889632434371" lon="14.829529807931">
        <ele>170.8</ele>
        <time>2019-12-10T18:59:50Z</time>
      </trkpt>
      <trkpt lat="56.889724216176" lon="14.829354290945">
        <ele>170.8</ele>
        <time>2019-12-10T18:59:55Z</time>
      </trkpt>
      <trkpt lat="56.889729245316" lon="14.829011974149">
        <ele>170.4</ele>
        <time>2019-12-10T19:00:03Z</time>
      </trkpt>
      <trkpt lat="56.889819769836" lon="14.828692875216">
        <ele>170.6</ele>
        <time>2019-12-10T19:00:11Z</time>
      </trkpt>
      <trkpt lat="56.889959160833" lon="14.82844192113">
        <ele>170.6</ele>
        <time>2019-12-10T19:00:19Z</time>
      </trkpt>
      <trkpt lat="56.89011699201" lon="14.82827595951">
        <ele>170.6</ele>
        <time>2019-12-10T19:00:27Z</time>
      </trkpt>
      <trkpt lat="56.890199386087" lon="14.827930206135">
        <ele>169.8</ele>
        <time>2019-12-10T19:00:35Z</time>
      </trkpt>
      <trkpt lat="56.890219167371" lon="14.827580932362">
        <ele>170</ele>
        <time>2019-12-10T19:00:42Z</time>
      </trkpt>
      <trkpt lat="56.890225453796" lon="14.827246243095">
        <ele>169.8</ele>
        <time>2019-12-10T19:00:49Z</time>
      </trkpt>
      <trkpt lat="56.890239619207" lon="14.826897304598">
        <ele>170</ele>
        <time>2019-12-10T19:00:57Z</time>
      </trkpt>
      <trkpt lat="56.890234170972" lon="14.826523388039">
        <ele>170.2</ele>
        <time>2019-12-10T19:01:05Z</time>
      </trkpt>
      <trkpt lat="56.890255125722" lon="14.826148717109">
        <ele>170.2</ele>
        <time>2019-12-10T19:01:13Z</time>
      </trkpt>
      <trkpt lat="56.890325366044" lon="14.825836742791">
        <ele>170.4</ele>
        <time>2019-12-10T19:01:20Z</time>
      </trkpt>
      <trkpt lat="56.890418321315" lon="14.825540023531">
        <ele>171</ele>
        <time>2019-12-10T19:01:28Z</time>
      </trkpt>
      <trkpt lat="56.890508678197" lon="14.825369284228">
        <ele>171.6</ele>
        <time>2019-12-10T19:01:33Z</time>
      </trkpt>
      <trkpt lat="56.890634239059" lon="14.825136435046">
        <ele>171.4</ele>
        <time>2019-12-10T19:01:40Z</time>
      </trkpt>
      <trkpt lat="56.890752842944" lon="14.824843236184">
        <ele>172</ele>
        <time>2019-12-10T19:01:48Z</time>
      </trkpt>
      <trkpt lat="56.890803134344" lon="14.824713819648">
        <ele>172.6</ele>
        <time>2019-12-10T19:01:52Z</time>
      </trkpt>
      <trkpt lat="56.890848145147" lon="14.82464408224">
        <ele>173.6</ele>
        <time>2019-12-10T19:01:55Z</time>
      </trkpt>
      <trkpt lat="56.890922995514" lon="14.824536626282">
        <ele>174.6</ele>
        <time>2019-12-10T19:02:00Z</time>
      </trkpt>
      <trkpt lat="56.890961636073" lon="14.824461692096">
        <ele>175.8</ele>
        <time>2019-12-10T19:02:03Z</time>
      </trkpt>
      <trkpt lat="56.890975047113" lon="14.824439899156">
        <ele>176.2</ele>
        <time>2019-12-10T19:02:04Z</time>
      </trkpt>
      <trkpt lat="56.891055429534" lon="14.824270333319">
        <ele>176</ele>
        <time>2019-12-10T19:02:11Z</time>
      </trkpt>
    </trkseg>
  </trk>
</gpx>